createdAt,value
2023-05-22T00:01:26.672Z,97576.28
2023-05-22T00:06:28.822Z,97585.03
2023-05-22T00:11:31.105Z,97572.59
2023-05-22T00:16:33.386Z,97575.91
2023-05-22T00:21:37.721Z,97577.56
2023-05-22T00:26:40.001Z,97573.97
2023-05-22T00:31:42.205Z,97568.41
2023-05-22T00:36:44.831Z,97571.06
2023-05-22T00:41:47.505Z,97571.47
2023-05-22T00:46:51.264Z,97572.88
2023-05-22T00:51:53.508Z,97579.44
2023-05-22T00:56:56.023Z,97573.41
2023-05-22T01:01:58.810Z,97570.09
2023-05-22T01:07:03.155Z,97572.69
2023-05-22T01:12:36.535Z,97569.28
2023-05-22T01:18:11.422Z,97574.06
2023-05-22T01:23:44.767Z,97574.69
2023-05-22T01:29:04.832Z,97580.59
2023-05-22T01:34:12.662Z,97588.88
2023-05-22T01:39:17.528Z,97585.94
2023-05-22T01:44:20.901Z,97587.09
2023-05-22T01:49:24.035Z,97597.09
2023-05-22T01:54:42.469Z,97590.06
2023-05-22T01:59:55.631Z,97593.81
2023-05-22T02:05:01.482Z,97597.59
2023-05-22T02:10:05.699Z,97596.66
2023-05-22T02:15:09.517Z,97592.69
2023-05-22T02:20:15.708Z,97598.78
2023-05-22T02:25:19.093Z,97599.78
2023-05-22T02:30:21.587Z,97592.66
2023-05-22T02:35:26.425Z,97587.25
2023-05-22T02:40:28.636Z,97584.44
2023-05-22T02:45:31.437Z,97583.69
2023-05-22T02:50:33.671Z,97587.25
2023-05-22T02:55:36.131Z,97585.00
2023-05-22T03:00:39.124Z,97586.53
2023-05-22T03:05:41.482Z,97592.53
2023-05-22T03:10:44.651Z,97592.31
2023-05-22T03:15:47.188Z,97600.75
2023-05-22T03:20:51.303Z,97600.00
2023-05-22T03:25:53.557Z,97605.66
2023-05-22T03:30:57.470Z,97606.06
2023-05-22T03:36:03.832Z,97608.13
2023-05-22T03:41:06.207Z,97613.69
2023-05-22T03:46:08.567Z,97614.50
2023-05-22T03:51:10.769Z,97624.66
2023-05-22T03:56:13.652Z,97612.44
2023-05-22T04:01:17.127Z,97616.91
2023-05-22T04:06:22.422Z,97623.59
2023-05-22T04:11:24.749Z,97622.94
2023-05-22T04:16:29.027Z,97625.91
2023-05-22T04:21:35.883Z,97632.97
2023-05-22T04:26:41.007Z,97634.03
2023-05-22T04:31:44.777Z,97636.69
2023-05-22T04:36:48.219Z,97637.72
2023-05-22T04:41:50.670Z,97640.22
2023-05-22T04:46:53.953Z,97643.34
2023-05-22T04:51:57.598Z,97639.44
2023-05-22T04:57:00.059Z,97647.41
2023-05-22T05:02:02.480Z,97645.22
2023-05-22T05:07:06.306Z,97647.94
2023-05-22T05:12:08.913Z,97647.09
2023-05-22T05:17:11.341Z,97647.59
2023-05-22T05:22:15.663Z,97645.75
2023-05-22T05:27:18.276Z,97647.31
2023-05-22T05:32:21.147Z,97648.41
2023-05-22T05:37:35.483Z,97639.94
2023-05-22T05:42:39.579Z,97645.56
2023-05-22T05:47:44.461Z,97642.69
2023-05-22T05:52:47.096Z,97646.72
2023-05-22T05:57:52.589Z,97652.09
2023-05-22T06:03:01.632Z,97648.88
2023-05-22T06:08:32.630Z,97665.16
2023-05-22T06:13:35.333Z,97662.78
2023-05-22T06:18:37.515Z,97665.81
2023-05-22T06:23:40.415Z,97669.94
2023-05-22T06:28:45.304Z,97663.78
2023-05-22T06:33:47.890Z,97670.75
2023-05-22T06:38:50.475Z,97669.81
2023-05-22T06:44:16.129Z,97664.31
2023-05-22T06:49:19.399Z,97662.38
2023-05-22T06:54:28.782Z,97667.84
2023-05-22T06:59:32.892Z,97665.53
2023-05-22T07:04:40.769Z,97662.88
2023-05-22T07:09:47.645Z,97672.06
2023-05-22T07:14:50.511Z,97672.81
2023-05-22T07:19:53.121Z,97673.03
2023-05-22T07:24:56.228Z,97680.03
2023-05-22T07:30:03.432Z,97669.06
2023-05-22T07:35:08.195Z,97673.63
2023-05-22T07:40:11.407Z,97675.19
2023-05-22T07:45:13.880Z,97676.69
2023-05-22T07:50:17.205Z,97666.84
2023-05-22T07:55:21.425Z,97669.41
2023-05-22T08:00:25.516Z,97670.84
2023-05-22T08:05:27.786Z,97670.63
2023-05-22T08:10:41.706Z,97670.97
2023-05-22T08:15:49.751Z,97672.41
2023-05-22T08:20:54.945Z,97670.53
2023-05-22T08:25:58.203Z,97663.78
2023-05-22T08:31:00.385Z,97661.53
2023-05-22T08:36:02.521Z,97662.50
2023-05-22T08:41:06.957Z,97663.41
2023-05-22T08:46:10.742Z,97656.50
2023-05-22T08:51:18.885Z,97653.28
2023-05-22T08:56:22.429Z,97658.69
2023-05-22T09:01:25.281Z,97667.66
2023-05-22T09:06:29.379Z,97660.78
2023-05-22T09:11:31.729Z,97656.38
2023-05-22T09:16:34.251Z,97659.44
2023-05-22T09:21:37.509Z,97649.31
2023-05-22T09:26:40.575Z,97655.56
2023-05-22T09:31:44.935Z,97654.97
2023-05-22T09:36:51.505Z,97651.50
2023-05-22T09:41:53.671Z,97655.06
2023-05-22T09:46:56.012Z,97660.13
2023-05-22T09:51:59.392Z,97654.75
2023-05-22T09:57:05.044Z,97652.50
2023-05-22T10:02:09.150Z,97664.06
2023-05-22T10:07:14.259Z,97664.63
2023-05-22T10:12:20.972Z,97657.00
2023-05-22T10:17:25.079Z,97659.84
2023-05-22T10:22:29.501Z,97659.44
2023-05-22T10:27:32.106Z,97653.97
2023-05-22T10:32:48.056Z,97652.34
2023-05-22T10:38:03.654Z,97639.28
2023-05-22T10:43:06.009Z,97639.16
2023-05-22T10:48:12.009Z,97641.41
2023-05-22T10:53:28.246Z,97632.13
2023-05-22T10:58:34.611Z,97629.81
2023-05-22T11:04:00.536Z,97617.88
2023-05-22T11:09:20.645Z,97616.47
2023-05-22T11:14:26.001Z,97609.47
2023-05-22T11:19:28.332Z,97595.00
2023-05-22T11:24:34.648Z,97593.84
2023-05-22T11:29:39.101Z,97591.56
2023-05-22T11:34:43.267Z,97591.53
2023-05-22T11:40:01.052Z,97591.53
2023-05-22T11:45:04.904Z,97587.84
2023-05-22T11:50:10.940Z,97575.09
2023-05-22T11:55:13.167Z,97579.38
2023-05-22T12:00:16.395Z,97571.66
2023-05-22T12:05:21.994Z,97562.09
2023-05-22T12:10:26.274Z,97566.66
2023-05-22T12:15:28.633Z,97567.00
2023-05-22T12:20:31.450Z,97560.34
2023-05-22T12:25:37.409Z,97560.34
2023-05-22T12:30:42.243Z,97549.16
2023-05-22T12:35:44.553Z,97551.56
2023-05-22T12:40:47.240Z,97561.38
2023-05-22T12:45:50.001Z,97566.97
2023-05-22T12:50:52.283Z,97563.22
2023-05-22T12:55:54.388Z,97570.03
2023-05-22T13:00:56.705Z,97575.16
2023-05-22T13:05:58.906Z,97561.03
2023-05-22T13:11:01.294Z,97543.69
2023-05-22T13:16:03.497Z,97538.41
2023-05-22T13:21:06.451Z,97530.97
2023-05-22T13:26:08.805Z,97540.78
2023-05-22T13:31:11.018Z,97533.13
2023-05-22T13:36:13.530Z,97542.91
2023-05-22T13:41:16.159Z,97552.97
2023-05-22T13:46:20.660Z,97560.66
2023-05-22T13:51:22.879Z,97545.72
2023-05-22T13:56:24.989Z,97529.16
2023-05-22T14:01:27.728Z,97531.13
2023-05-22T14:06:30.030Z,97539.75
2023-05-22T14:11:32.228Z,97528.00
2023-05-22T14:16:34.500Z,97526.03
2023-05-22T14:21:36.723Z,97519.59
2023-05-22T14:26:39.418Z,97521.59
2023-05-22T14:31:51.792Z,97512.56
2023-05-22T14:36:56.656Z,97508.31
2023-05-22T14:41:58.822Z,97523.31
2023-05-22T14:47:01.101Z,97532.09
2023-05-22T14:52:03.273Z,97539.53
2023-05-22T14:57:05.762Z,97548.59
2023-05-22T15:02:08.107Z,97560.25
2023-05-22T15:07:10.375Z,97561.47
2023-05-22T15:12:15.664Z,97563.09
2023-05-22T15:17:18.261Z,97557.34
2023-05-22T15:22:20.543Z,97559.66
2023-05-22T15:27:22.839Z,97569.84
2023-05-22T15:32:25.018Z,97563.09
2023-05-22T15:37:29.736Z,97558.00
2023-05-22T15:42:33.869Z,97539.31
2023-05-22T15:47:36.038Z,97527.44
2023-05-22T15:52:38.549Z,97526.56
2023-05-22T15:57:40.830Z,97529.22
2023-05-22T16:02:43.509Z,97532.19
2023-05-22T16:07:46.216Z,97532.53
2023-05-22T16:12:48.563Z,97545.91
2023-05-22T16:17:50.897Z,97548.53
2023-05-22T16:22:53.125Z,97529.84
2023-05-22T16:27:55.420Z,97524.56
2023-05-22T16:32:57.840Z,97523.72
2023-05-22T16:38:00.006Z,97529.69
2023-05-22T16:43:02.369Z,97546.75
2023-05-22T16:48:04.697Z,97567.34
2023-05-22T16:53:06.934Z,97573.09
2023-05-22T16:58:13.013Z,97571.09
2023-05-22T17:03:15.557Z,97563.47
2023-05-22T17:08:18.264Z,97560.94
2023-05-22T17:13:21.210Z,97553.91
2023-05-22T17:18:23.514Z,97561.38
2023-05-22T17:23:25.994Z,97561.66
2023-05-22T17:28:28.128Z,97565.63
2023-05-22T17:33:30.309Z,97574.88
2023-05-22T17:38:32.458Z,97574.25
2023-05-22T17:43:35.485Z,97601.56
2023-05-22T17:48:37.613Z,97582.94
2023-05-22T17:53:39.828Z,97600.88
2023-05-22T17:58:41.934Z,97604.09
2023-05-22T18:03:46.303Z,97615.28
2023-05-22T18:08:48.973Z,97606.53
2023-05-22T18:13:51.112Z,97604.56
2023-05-22T18:18:53.390Z,97602.97
2023-05-22T18:23:56.062Z,97617.78
2023-05-22T18:28:58.242Z,97609.66
2023-05-22T18:34:00.445Z,97617.53
2023-05-22T18:39:02.667Z,97619.41
2023-05-22T18:44:04.840Z,97637.03
2023-05-22T18:49:07.077Z,97635.00
2023-05-22T18:54:09.298Z,97636.03
2023-05-22T18:59:11.500Z,97639.31
2023-05-22T19:04:13.709Z,97633.31
2023-05-22T19:09:19.065Z,97631.34
2023-05-22T19:14:21.385Z,97636.91
2023-05-22T19:19:23.526Z,97648.41
2023-05-22T19:24:27.708Z,97662.41
2023-05-22T19:29:29.901Z,97667.78
2023-05-22T19:34:32.207Z,97669.28
2023-05-22T19:39:34.432Z,97680.69
2023-05-22T19:44:36.647Z,97681.22
2023-05-22T19:49:38.853Z,97683.09
2023-05-22T19:54:40.999Z,97689.97
2023-05-22T19:59:43.304Z,97688.47
2023-05-22T20:04:48.625Z,97696.00
2023-05-22T20:09:51.572Z,97690.53
2023-05-22T20:14:54.353Z,97699.56
2023-05-22T20:19:58.913Z,97691.56
2023-05-22T20:25:01.627Z,97702.19
2023-05-22T20:30:04.697Z,97706.94
2023-05-22T20:35:11.025Z,97710.19
2023-05-22T20:40:14.586Z,97718.25
2023-05-22T20:45:17.658Z,97725.09
2023-05-22T20:50:20.035Z,97726.69
2023-05-22T20:55:22.309Z,97738.28
2023-05-22T21:00:24.485Z,97743.28
2023-05-22T21:05:26.674Z,97744.53
2023-05-22T21:10:28.963Z,97744.06
2023-05-22T21:15:31.103Z,97746.88
2023-05-22T21:20:33.204Z,97748.66
2023-05-22T21:25:35.377Z,97746.16
2023-05-22T21:30:37.703Z,97751.31
2023-05-22T21:35:39.995Z,97757.06
2023-05-22T21:40:43.063Z,97752.19
2023-05-22T21:45:45.355Z,97750.22
2023-05-22T21:50:47.957Z,97749.69
2023-05-22T21:55:50.338Z,97752.47
2023-05-22T22:00:54.705Z,97763.34
2023-05-22T22:05:56.826Z,97771.88
2023-05-22T22:10:59.745Z,97757.81
2023-05-22T22:16:02.019Z,97758.38
2023-05-22T22:21:04.782Z,97764.66
2023-05-22T22:26:07.582Z,97767.16
2023-05-22T22:31:10.027Z,97769.44
2023-05-22T22:36:12.166Z,97784.81
2023-05-22T22:41:14.317Z,97778.53
2023-05-22T22:46:16.929Z,97776.28
2023-05-22T22:51:20.209Z,97778.81
2023-05-22T22:56:28.257Z,97780.72
2023-05-22T23:01:30.556Z,97783.13
2023-05-22T23:06:33.103Z,97782.09
2023-05-22T23:11:37.845Z,97787.75
2023-05-22T23:16:43.531Z,97788.38
2023-05-22T23:21:46.215Z,97781.78
2023-05-22T23:26:48.703Z,97790.34
2023-05-22T23:31:50.957Z,97786.06
2023-05-22T23:36:53.151Z,97788.78
2023-05-22T23:41:55.361Z,97803.47
2023-05-22T23:46:57.929Z,97799.66
2023-05-22T23:52:00.352Z,97805.47
2023-05-22T23:57:02.488Z,97805.88
